KACY

Atlantic City International Airport

Atlantic City, New Jersey, USA
METAR KACY 171008Z 32006KT 6SM -RA BR BKN005 OVC010 03/03 A3024 RMK AO2 UPE0956RAB0956 P0001 T00280028
Observed Flight Rules
Jan-17 @ 10:08 UTC (27 minutes ago) Instrument Flight Rules
Wind Visibility Clouds Conditions
320° at 6 knots 6 miles
  • Broken at 500' AGL
  • Overcast at 1,000' AGL
  • Light Rain
  • Mist
Temperatures Readings Precipitation
Current 3°C / 37°F
Dewpoint 3°C / 37°F
Humidity 100%
Altimeter 30.24" Hg
Pressure 1024 hPa
Elevation 23
Current Rain 0.01
METAR KACY 171008Z 32006KT 6SM -RA BR BKN005 OVC010 03/03 A3024 RMK AO2 UPE0956RAB0956 P0001 T00280028
Observed Flight Rules
Jan-17 @ 10:08 UTC
(27 minutes ago)
IFR
Wind Visibility
320° at 6 knots 6 miles
Clouds
  • Broken at 500' AGL
  • Overcast at 1,000' AGL
Conditions
  • Light Rain
  • Mist
Temperature Dewpoint
3°C / 37°F 3°C / 37°F
Humidity Altimeter Pressure
100% 30.24" Hg 1024 hPa
Current Rain
0.01